Time;durP1;ratioP1;P1;durP2;ratioP2;P2;SDS_P1;SDS_P2;PMS_P1;PMS_P2;Temp;Humidity;BMP_temperature;BMP_pressure;BME280_temperature;BME280_humidity;BME280_pressure;Samples;Min_cycle;Max_cycle;Signal;HPM_P1;HPM_P2
2023/09/28 00:01:35;;;;;;;13.00;8.60;;;;;;;14.96;71.79;100794.39;105321;1257;60575;-77
2023/09/28 00:04:02;;;;;;;10.30;9.00;;;;;;;14.91;71.91;100789.66;105576;1259;72125;-76
2023/09/28 00:06:29;;;;;;;12.50;10.10;;;;;;;14.87;72.31;100791.45;105538;1257;70420;-74
2023/09/28 00:08:56;;;;;;;14.50;10.10;;;;;;;14.83;72.35;100787.98;105444;1260;73220;-74
2023/09/28 00:11:23;;;;;;;15.50;9.10;;;;;;;14.78;72.62;100787.25;105480;1257;60333;-77
2023/09/28 00:13:50;;;;;;;14.00;10.70;;;;;;;14.72;72.80;100784.61;105639;1257;60011;-74
2023/09/28 00:16:16;;;;;;;11.60;9.00;;;;;;;14.65;73.21;100789.00;106682;1257;73368;-74
2023/09/28 00:18:43;;;;;;;12.70;9.30;;;;;;;14.58;73.24;100791.04;106139;1257;71250;-75
2023/09/28 00:21:10;;;;;;;15.30;9.60;;;;;;;14.60;73.51;100790.69;105413;1260;73041;-73
2023/09/28 00:23:37;;;;;;;12.50;10.50;;;;;;;14.64;73.47;100790.37;106145;1254;60125;-73
2023/09/28 00:26:03;;;;;;;14.20;9.50;;;;;;;14.61;73.71;100793.08;105964;1253;59647;-73
2023/09/28 00:28:30;;;;;;;12.70;9.80;;;;;;;14.56;73.97;100791.11;105892;1256;73351;-72
2023/09/28 00:30:57;;;;;;;13.50;9.80;;;;;;;14.51;74.08;100793.89;105605;1253;71064;-75
2023/09/28 00:33:24;;;;;;;18.70;10.50;;;;;;;14.46;74.24;100794.77;105695;1253;73103;-74
2023/09/28 00:35:51;;;;;;;12.30;10.30;;;;;;;14.45;74.60;100793.66;105556;1253;60095;-73
2023/09/28 00:38:17;;;;;;;12.20;9.20;;;;;;;14.47;74.71;100795.60;105594;1254;59736;-74
2023/09/28 00:40:44;;;;;;;12.90;9.10;;;;;;;14.57;74.52;100793.20;105716;1254;71829;-73
2023/09/28 00:43:11;;;;;;;13.70;10.50;;;;;;;14.65;74.20;100789.33;105710;1254;70443;-72
2023/09/28 00:45:37;;;;;;;12.70;9.90;;;;;;;14.64;74.21;100793.41;105660;1254;59570;-74
2023/09/28 00:48:05;;;;;;;13.90;9.40;;;;;;;14.60;74.33;100792.08;105712;1255;60352;-74
2023/09/28 00:50:32;;;;;;;13.40;9.90;;;;;;;14.57;74.56;100789.23;105605;1253;59663;-74
2023/09/28 00:53:07;;;;;;;13.20;10.10;;;;;;;14.55;74.74;100791.83;105713;1252;73457;-75
2023/09/28 00:55:36;;;;;;;15.30;10.00;;;;;;;14.54;74.79;100788.61;105745;1254;70188;-76
2023/09/28 00:58:05;;;;;;;14.20;9.30;;;;;;;14.52;74.75;100791.95;105682;1256;72550;-74
2023/09/28 01:00:36;;;;;;;12.90;9.70;;;;;;;14.60;74.42;100796.02;105816;1253;62332;-74
2023/09/28 01:03:08;;;;;;;13.90;9.80;;;;;;;14.63;74.17;100790.62;105767;1254;60138;-74
2023/09/28 01:05:42;;;;;;;14.10;9.70;;;;;;;14.59;74.48;100791.14;105877;1254;73225;-76
2023/09/28 01:08:11;;;;;;;;;;;;;;;14.55;74.83;100791.13;105732;1254;71256;-74
2023/09/28 01:10:40;;;;;;;13.70;10.80;;;;;;;14.53;74.82;100788.29;105713;1255;73348;-75
2023/09/28 01:13:12;;;;;;;11.90;10.50;;;;;;;14.47;74.94;100789.23;105825;1254;60170;-75
2023/09/28 01:15:48;;;;;;;15.40;9.60;;;;;;;14.40;75.15;100789.45;105568;1254;60269;-75
2023/09/28 01:18:16;;;;;;;11.50;9.50;;;;;;;14.36;75.44;100789.98;105551;1258;73549;-75
2023/09/28 01:20:44;;;;;;;13.50;9.30;;;;;;;14.42;75.25;100787.44;105684;1254;70704;-75
2023/09/28 01:23:11;;;;;;;16.50;10.10;;;;;;;14.45;75.12;100791.53;105678;1254;72966;-75
2023/09/28 01:25:38;;;;;;;13.10;9.70;;;;;;;14.41;75.24;100790.73;105637;1254;60414;-75
2023/09/28 01:28:06;;;;;;;13.80;10.50;;;;;;;14.34;75.37;100794.63;105676;1253;60345;-74
2023/09/28 01:30:33;;;;;;;11.00;9.40;;;;;;;14.28;75.49;100794.26;106390;1254;73826;-74
2023/09/28 01:33:00;;;;;;;11.60;9.70;;;;;;;14.23;75.85;100797.60;107937;1254;70851;-75
2023/09/28 01:35:28;;;;;;;18.10;9.80;;;;;;;14.20;76.05;100793.56;108292;1253;72083;-76
2023/09/28 01:38:09;;;;;;;12.00;9.40;;;;;;;14.28;76.22;100792.62;105725;1254;61797;-76
2023/09/28 01:40:37;;;;;;;12.70;8.30;;;;;;;14.36;75.95;100792.27;105814;1253;60606;-76
2023/09/28 01:43:04;;;;;;;14.70;9.30;;;;;;;14.32;75.77;100795.10;105684;1254;72861;-74
2023/09/28 01:45:31;;;;;;;11.80;9.80;;;;;;;14.28;76.10;100800.70;105777;1254;70513;-75
2023/09/28 01:47:57;;;;;;;13.10;9.60;;;;;;;14.25;76.22;100801.02;105623;1256;72723;-75
2023/09/28 01:50:24;;;;;;;14.80;10.60;;;;;;;14.23;76.33;100801.71;105802;1256;60153;-75
2023/09/28 01:52:51;;;;;;;10.60;9.00;;;;;;;14.18;76.24;100801.74;105702;1254;60149;-75
2023/09/28 01:55:18;;;;;;;10.30;9.20;;;;;;;14.23;76.30;100804.61;105838;1256;73455;-74
2023/09/28 01:57:45;;;;;;;11.80;9.90;;;;;;;14.27;76.22;100803.41;105774;1251;70849;-74
2023/09/28 02:00:20;;;;;;;16.40;10.20;;;;;;;14.24;76.31;100804.81;105594;1257;71823;-75
2023/09/28 02:02:47;;;;;;;12.60;9.70;;;;;;;14.17;76.49;100806.11;105518;1254;60181;-75
2023/09/28 02:05:18;;;;;;;11.80;10.60;;;;;;;14.07;76.48;100810.25;105682;1254;60731;-77
2023/09/28 02:07:45;;;;;;;12.20;9.50;;;;;;;14.03;76.92;100811.98;105880;1253;73494;-75
2023/09/28 02:10:12;;;;;;;12.80;9.60;;;;;;;14.03;77.20;100815.16;105845;1252;69794;-74
2023/09/28 02:12:39;;;;;;;11.30;9.40;;;;;;;14.09;77.06;100813.39;105463;1257;73084;-72
2023/09/28 02:15:09;;;;;;;11.20;9.20;;;;;;;14.17;76.89;100815.40;105722;1253;60079;-73
2023/09/28 02:17:39;;;;;;;11.40;9.40;;;;;;;14.15;76.90;100812.55;105515;1254;60075;-74
2023/09/28 02:20:09;;;;;;;9.80;8.70;;;;;;;14.12;77.20;100815.59;105625;1256;73163;-74
2023/09/28 02:22:43;;;;;;;10.40;9.30;;;;;;;14.09;77.24;100812.39;105705;1254;70218;-75
2023/09/28 02:25:18;;;;;;;13.10;9.30;;;;;;;14.08;77.31;100810.64;105411;1253;71194;-73
2023/09/28 02:27:47;;;;;;;9.90;8.40;;;;;;;14.17;77.17;100812.92;105726;1254;61828;-74
2023/09/28 02:30:19;;;;;;;19.20;12.90;;;;;;;14.22;77.08;100814.66;105675;1253;60131;-74
2023/09/28 02:32:46;;;;;;;10.70;9.00;;;;;;;14.16;76.98;100815.86;105607;1252;73197;-74
2023/09/28 02:35:14;;;;;;;11.70;9.60;;;;;;;14.03;76.99;100819.91;105605;1256;70725;-74
2023/09/28 02:37:46;;;;;;;11.80;9.60;;;;;;;13.87;77.30;100818.25;105783;1252;73163;-72
2023/09/28 02:40:13;;;;;;;12.00;9.10;;;;;;;13.77;77.83;100819.80;106033;1254;62048;-72
2023/09/28 02:42:41;;;;;;;10.10;8.90;;;;;;;13.82;77.96;100817.88;105650;1254;60206;-73
2023/09/28 02:45:11;;;;;;;10.60;8.70;;;;;;;13.86;77.87;100824.96;106015;1256;73438;-73
2023/09/28 02:47:43;;;;;;;11.20;9.40;;;;;;;13.82;78.23;100822.23;105726;1254;70345;-73
2023/09/28 02:50:11;;;;;;;11.40;9.20;;;;;;;13.79;78.52;100821.81;105820;1254;71075;-74
2023/09/28 02:52:40;;;;;;;13.50;9.50;;;;;;;13.77;78.67;100818.59;105784;1253;59777;-74
2023/09/28 02:55:08;;;;;;;13.30;9.90;;;;;;;13.74;78.65;100822.10;105773;1252;60136;-74
2023/09/28 02:57:35;;;;;;;12.80;9.20;;;;;;;13.71;78.79;100814.77;105776;1256;73074;-74
2023/09/28 03:00:12;;;;;;;13.00;8.80;;;;;;;13.75;78.51;100814.89;105665;1254;70678;-74
2023/09/28 03:02:38;;;;;;;10.80;8.50;;;;;;;13.77;78.51;100809.54;105800;1254;73080;-74
2023/09/28 03:05:07;;;;;;;10.90;9.80;;;;;;;13.73;78.69;100808.80;105635;1253;60203;-73
2023/09/28 03:07:34;;;;;;;11.30;9.40;;;;;;;13.67;78.81;100808.09;105746;1253;59509;-74
2023/09/28 03:10:03;;;;;;;10.80;9.00;;;;;;;13.65;79.05;100806.83;105656;1258;73780;-73
2023/09/28 03:12:30;;;;;;;12.50;8.90;;;;;;;13.66;78.89;100807.11;105715;1254;70088;-74
2023/09/28 03:14:56;;;;;;;11.80;8.80;;;;;;;13.74;78.63;100807.73;105785;1252;73160;-75
2023/09/28 03:17:23;;;;;;;9.80;8.80;;;;;;;13.80;78.19;100809.22;105582;1254;60418;-73
2023/09/28 03:19:51;;;;;;;10.80;9.30;;;;;;;13.76;78.05;100807.34;105572;1253;60517;-75
2023/09/28 03:22:19;;;;;;;13.90;9.50;;;;;;;13.66;78.29;100805.50;105702;1256;73536;-73
2023/09/28 03:24:47;;;;;;;13.60;9.30;;;;;;;13.51;78.13;100806.70;105688;1254;70856;-75
2023/09/28 03:27:14;;;;;;;9.50;7.60;;;;;;;13.37;78.55;100805.00;105750;1253;73015;-76
2023/09/28 03:29:42;;;;;;;11.80;8.20;;;;;;;13.33;78.82;100806.70;105724;1254;62055;-76
2023/09/28 03:32:08;;;;;;;16.70;11.50;;;;;;;13.35;78.98;100803.04;105805;1253;60537;-76
2023/09/28 03:34:36;;;;;;;13.00;10.20;;;;;;;13.31;79.20;100807.35;105867;1256;74013;-75
2023/09/28 03:37:04;;;;;;;10.60;9.30;;;;;;;13.28;79.51;100807.67;105839;1254;70323;-75
2023/09/28 03:39:31;;;;;;;12.80;9.60;;;;;;;13.26;79.60;100806.96;105869;1251;73114;-75
2023/09/28 03:41:57;;;;;;;14.70;8.50;;;;;;;13.27;79.70;100808.73;105700;1254;62155;-77
2023/09/28 03:44:24;;;;;;;12.30;8.80;;;;;;;13.32;79.44;100814.23;106188;1251;60538;-76
2023/09/28 03:46:51;;;;;;;13.50;9.30;;;;;;;13.40;79.63;100812.88;105933;1256;73712;-76
2023/09/28 03:49:18;;;;;;;10.10;8.50;;;;;;;13.43;79.50;100815.05;105749;1251;70537;-76
2023/09/28 03:51:45;;;;;;;10.60;9.00;;;;;;;13.41;79.41;100819.13;105503;1256;71656;-76
2023/09/28 03:54:12;;;;;;;10.50;8.90;;;;;;;13.34;79.51;100819.70;106740;1253;60515;-78
2023/09/28 03:56:40;;;;;;;9.80;8.80;;;;;;;13.27;79.62;100821.52;105687;1254;60963;-77
2023/09/28 03:59:06;;;;;;;14.50;8.90;;;;;;;13.30;79.69;100820.06;106016;1254;73050;-79
2023/09/28 04:01:33;;;;;;;10.40;9.30;;;;;;;13.39;79.71;100827.23;105730;1256;71364;-77
2023/09/28 04:04:01;;;;;;;12.80;9.80;;;;;;;13.41;79.59;100822.61;105574;1254;72986;-77
2023/09/28 04:06:27;;;;;;;15.10;10.80;;;;;;;13.41;79.80;100818.34;105994;1254;60513;-78
2023/09/28 04:08:55;;;;;;;12.80;9.40;;;;;;;13.39;79.67;100819.02;105681;1256;60542;-78
2023/09/28 04:11:22;;;;;;;12.80;10.10;;;;;;;13.37;79.74;100816.36;105654;1256;74311;-77
2023/09/28 04:13:48;;;;;;;11.50;9.30;;;;;;;13.43;79.71;100816.67;105629;1254;70747;-77
2023/09/28 04:16:15;;;;;;;12.00;9.90;;;;;;;13.51;79.61;100818.81;105603;1256;72988;-76
2023/09/28 04:18:42;;;;;;;14.70;9.90;;;;;;;13.51;79.44;100818.80;105788;1251;60463;-78
2023/09/28 04:21:08;;;;;;;16.10;10.40;;;;;;;13.45;79.45;100821.12;105875;1254;60443;-76
2023/09/28 04:23:35;;;;;;;14.80;11.70;;;;;;;13.39;79.72;100817.63;105859;1254;73964;-75
2023/09/28 04:26:02;;;;;;;12.40;10.10;;;;;;;13.38;79.93;100819.48;105455;1255;71053;-75
2023/09/28 04:28:28;;;;;;;14.00;11.10;;;;;;;13.46;79.83;100821.32;105786;1253;73318;-75
2023/09/28 04:30:55;;;;;;;14.70;11.20;;;;;;;13.56;79.72;100820.09;105756;1253;60459;-75
2023/09/28 04:33:22;;;;;;;15.20;11.70;;;;;;;13.60;79.77;100820.90;105732;1254;60479;-77
2023/09/28 04:35:49;;;;;;;15.70;12.10;;;;;;;13.64;80.14;100822.48;105674;1257;74443;-76
2023/09/28 04:38:16;;;;;;;16.50;11.50;;;;;;;13.69;80.15;100824.61;105857;1254;71165;-76
2023/09/28 04:40:43;;;;;;;13.70;10.10;;;;;;;13.74;80.07;100825.48;105452;1254;72842;-78
2023/09/28 04:43:10;;;;;;;16.80;11.10;;;;;;;13.86;79.83;100827.23;105648;1256;61697;-77
2023/09/28 04:45:36;;;;;;;14.70;10.80;;;;;;;13.99;79.78;100824.31;105633;1254;60687;-78
2023/09/28 04:48:04;;;;;;;13.60;10.50;;;;;;;14.05;79.62;100825.80;106335;1256;74713;-78
2023/09/28 04:50:31;;;;;;;16.20;12.30;;;;;;;14.09;79.63;100824.81;105874;1254;70843;-77
2023/09/28 04:52:58;;;;;;;13.70;12.00;;;;;;;14.14;79.65;100829.03;106722;1254;73011;-76
2023/09/28 04:55:24;;;;;;;15.40;11.20;;;;;;;14.21;79.40;100827.60;107737;1253;61746;-74
2023/09/28 04:57:53;;;;;;;12.50;10.80;;;;;;;14.29;78.89;100828.54;107513;1256;60362;-73
2023/09/28 05:00:20;;;;;;;14.10;10.60;;;;;;;14.37;78.65;100830.19;106202;1253;74435;-75
2023/09/28 05:02:47;;;;;;;13.70;11.00;;;;;;;14.43;78.84;100829.75;105759;1251;69682;-76
2023/09/28 05:05:15;;;;;;;14.70;10.90;;;;;;;14.47;78.57;100828.52;105716;1257;73521;-76
2023/09/28 05:07:42;;;;;;;16.90;12.60;;;;;;;14.50;78.55;100828.55;105623;1252;60438;-76
2023/09/28 05:10:09;;;;;;;15.60;11.50;;;;;;;14.57;78.57;100829.84;105521;1254;60511;-76
2023/09/28 05:12:36;;;;;;;12.80;10.00;;;;;;;14.66;78.46;100831.39;105582;1256;74462;-76
2023/09/28 05:15:03;;;;;;;14.40;11.10;;;;;;;14.80;78.02;100833.17;105640;1254;60460;-75
2023/09/28 05:17:31;;;;;;;18.20;11.80;;;;;;;14.95;77.86;100838.48;105864;1255;72724;-75
2023/09/28 05:19:58;;;;;;;12.40;10.90;;;;;;;15.03;77.38;100840.07;105711;1254;60432;-73
2023/09/28 05:22:26;;;;;;;14.30;11.30;;;;;;;15.09;77.15;100840.02;105601;1253;60538;-76
2023/09/28 05:24:53;;;;;;;15.00;12.00;;;;;;;15.10;77.17;100838.75;105682;1256;74137;-76
2023/09/28 05:27:20;;;;;;;15.00;11.60;;;;;;;15.16;76.99;100836.33;105575;1254;71712;-76
2023/09/28 05:29:46;;;;;;;15.10;11.80;;;;;;;15.23;76.70;100838.58;105627;1257;72916;-76
2023/09/28 05:32:13;;;;;;;12.80;11.50;;;;;;;15.34;76.28;100837.14;105517;1253;60552;-76
2023/09/28 05:34:40;;;;;;;15.10;11.60;;;;;;;15.47;76.02;100835.02;105572;1253;60546;-77
2023/09/28 05:37:06;;;;;;;14.70;12.20;;;;;;;15.56;75.96;100835.77;105711;1257;74412;-77
2023/09/28 05:39:33;;;;;;;16.10;12.40;;;;;;;15.66;75.68;100838.95;105819;1254;70546;-75
2023/09/28 05:42:01;;;;;;;16.80;12.70;;;;;;;15.72;75.48;100843.40;105704;1256;73016;-74
2023/09/28 05:44:30;;;;;;;16.40;11.70;;;;;;;15.82;75.16;100842.88;105588;1253;60437;-75
2023/09/28 05:46:57;;;;;;;20.10;13.90;;;;;;;15.90;74.64;100846.92;105482;1256;60636;-76
2023/09/28 05:49:23;;;;;;;17.60;12.50;;;;;;;15.99;74.55;100849.93;105545;1258;74050;-76
2023/09/28 05:51:52;;;;;;;14.20;11.80;;;;;;;16.14;74.11;100851.67;105512;1253;69846;-75
2023/09/28 05:54:18;;;;;;;16.50;13.50;;;;;;;16.30;73.73;100847.89;105547;1253;72933;-77
2023/09/28 05:56:45;;;;;;;18.30;13.80;;;;;;;16.40;73.32;100854.46;105869;1257;60529;-76
2023/09/28 05:59:12;;;;;;;19.50;13.70;;;;;;;16.48;72.80;100852.21;105950;1254;61989;-76
2023/09/28 06:01:39;;;;;;;15.00;13.20;;;;;;;16.55;72.43;100850.14;107090;1254;74413;-76
2023/09/28 06:04:06;;;;;;;15.70;13.00;;;;;;;16.63;72.13;100852.63;107649;1254;69022;-76
2023/09/28 06:06:33;;;;;;;18.80;13.80;;;;;;;16.71;71.67;100851.16;107285;1253;72985;-74
2023/09/28 06:08:59;;;;;;;17.60;13.00;;;;;;;16.78;71.13;100848.21;105915;1254;60488;-76
2023/09/28 06:11:26;;;;;;;21.60;13.60;;;;;;;16.83;70.87;100853.11;105738;1254;60590;-76
2023/09/28 06:13:53;;;;;;;16.90;13.90;;;;;;;16.87;70.65;100854.08;105739;1257;74425;-74
2023/09/28 06:16:25;;;;;;;23.40;12.80;;;;;;;16.92;70.49;100855.02;105505;1254;70880;-74
2023/09/28 06:18:52;;;;;;;15.70;12.10;;;;;;;17.04;70.19;100854.60;105827;1253;73042;-75
2023/09/28 06:21:20;;;;;;;18.10;12.70;;;;;;;17.16;69.91;100857.29;106194;1254;60427;-75
2023/09/28 06:23:46;;;;;;;16.30;13.00;;;;;;;17.19;69.76;100854.58;105821;1254;60568;-74
2023/09/28 06:26:13;;;;;;;21.30;13.70;;;;;;;17.23;70.09;100858.13;105843;1253;74252;-76
2023/09/28 06:28:52;;;;;;;18.00;13.50;;;;;;;17.30;69.98;100859.05;105579;1254;70226;-75
2023/09/28 06:31:20;;;;;;;14.60;13.10;;;;;;;17.38;69.74;100861.82;105696;1254;73527;-76
2023/09/28 06:33:46;;;;;;;19.70;13.70;;;;;;;17.45;69.17;100861.80;105589;1254;61013;-76
2023/09/28 06:36:14;;;;;;;16.50;12.80;;;;;;;17.55;68.93;100860.48;105677;1254;60389;-75
2023/09/28 06:38:56;;;;;;;21.70;13.80;;;;;;;17.66;68.55;100864.02;105490;1254;74008;-76
2023/09/28 06:41:23;;;;;;;18.40;13.60;;;;;;;17.73;68.18;100863.48;105700;1254;71108;-75
2023/09/28 06:43:50;;;;;;;19.00;13.80;;;;;;;17.82;67.97;100862.62;105651;1252;72030;-74
2023/09/28 06:46:17;;;;;;;16.90;12.80;;;;;;;17.91;67.68;100863.27;105765;1254;60469;-71
2023/09/28 06:48:46;;;;;;;21.00;12.80;;;;;;;18.01;67.03;100865.13;105630;1254;60480;-73
2023/09/28 06:51:15;;;;;;;16.80;11.60;;;;;;;18.07;66.68;100863.95;105565;1256;74420;-73
2023/09/28 06:53:42;;;;;;;14.10;11.60;;;;;;;18.12;66.29;100863.72;105772;1251;71195;-74
2023/09/28 06:56:08;;;;;;;16.80;12.60;;;;;;;18.17;65.86;100864.80;105532;1256;73256;-74
2023/09/28 06:58:41;;;;;;;12.40;11.20;;;;;;;18.23;65.51;100862.95;105624;1256;60453;-73
2023/09/28 07:01:08;;;;;;;17.30;11.70;;;;;;;18.27;65.27;100862.05;105691;1254;60546;-75
2023/09/28 07:03:35;;;;;;;12.00;10.70;;;;;;;18.31;64.98;100862.97;106163;1256;74251;-77
2023/09/28 07:06:02;;;;;;;15.20;11.80;;;;;;;18.36;65.00;100862.71;105616;1254;70826;-75
2023/09/28 07:08:31;;;;;;;15.40;11.60;;;;;;;18.41;64.71;100863.52;105688;1254;73035;-76
2023/09/28 07:10:58;;;;;;;16.20;10.60;;;;;;;18.47;64.40;100860.83;106238;1254;60464;-74
2023/09/28 07:13:24;;;;;;;10.90;9.60;;;;;;;18.53;64.26;100866.71;106323;1253;61521;-75
2023/09/28 07:15:51;;;;;;;14.20;10.50;;;;;;;18.62;63.81;100865.02;106177;1253;71472;-75
2023/09/28 07:18:18;;;;;;;16.60;10.40;;;;;;;18.71;63.79;100869.23;106501;1254;70645;-80
2023/09/28 07:20:46;;;;;;;11.80;9.80;;;;;;;18.85;63.49;100869.38;106270;1253;72908;-76
2023/09/28 07:23:15;;;;;;;17.10;9.30;;;;;;;18.98;63.11;100864.64;106458;1255;60468;-77
2023/09/28 07:25:42;;;;;;;13.00;9.80;;;;;;;19.11;62.79;100864.45;106105;1253;60441;-80
2023/09/28 07:28:09;;;;;;;10.40;9.10;;;;;;;19.22;62.22;100865.70;105943;1253;73690;-76
2023/09/28 07:30:35;;;;;;;14.20;9.10;;;;;;;19.31;61.67;100865.94;106358;1254;70413;-76
2023/09/28 07:33:03;;;;;;;11.20;9.00;;;;;;;19.39;61.17;100865.11;106311;1257;72535;-76
2023/09/28 07:35:30;;;;;;;12.90;8.90;;;;;;;19.48;60.82;100864.74;107460;1251;60847;-79
2023/09/28 07:37:57;;;;;;;12.00;9.50;;;;;;;19.59;60.77;100866.88;106348;1258;60432;-81
2023/09/28 07:40:27;;;;;;;10.80;8.90;;;;;;;19.73;60.59;100864.02;106391;1253;73394;-76
2023/09/28 07:43:13;;;;;;;16.40;10.30;;;;;;;19.89;60.33;100864.21;106257;1253;69917;-78
2023/09/28 07:45:40;;;;;;;17.10;11.70;;;;;;;20.03;60.38;100862.73;106311;1254;72669;-77
2023/09/28 07:48:07;;;;;;;14.00;10.60;;;;;;;20.18;60.23;100864.74;106522;1256;60322;-78
2023/09/28 07:50:34;;;;;;;12.90;10.10;;;;;;;20.32;59.92;100867.52;106467;1256;60586;-80
2023/09/28 07:53:00;;;;;;;12.30;10.20;;;;;;;20.47;59.68;100865.80;106066;1253;72723;-78
2023/09/28 07:55:27;;;;;;;15.70;9.40;;;;;;;20.59;59.51;100863.98;106847;1252;70066;-79
2023/09/28 07:57:54;;;;;;;15.00;10.10;;;;;;;20.71;59.14;100863.14;106822;1256;73759;-78
2023/09/28 08:00:35;;;;;;;10.90;9.80;;;;;;;20.83;59.03;100864.35;105808;1254;61812;-77
2023/09/28 08:03:03;;;;;;;12.60;10.50;;;;;;;20.95;58.79;100860.77;106406;1254;61439;-78
2023/09/28 08:05:31;;;;;;;10.60;8.80;;;;;;;21.06;58.44;100860.63;106021;1254;74975;-77
2023/09/28 08:07:59;;;;;;;13.40;10.50;;;;;;;21.19;58.15;100862.64;106235;1254;69458;-76
2023/09/28 08:10:42;;;;;;;13.90;8.80;;;;;;;21.34;57.88;100866.14;106100;1254;72767;-76
2023/09/28 08:13:09;;;;;;;9.60;8.40;;;;;;;21.50;57.42;100867.75;106412;1252;59567;-78
2023/09/28 08:15:40;;;;;;;13.20;8.00;;;;;;;21.65;56.78;100863.63;107267;1254;59923;-78
2023/09/28 08:18:08;;;;;;;11.10;8.60;;;;;;;21.78;56.14;100861.23;108160;1254;72467;-78
2023/09/28 08:20:37;;;;;;;9.80;7.90;;;;;;;21.92;55.81;100855.43;108255;1256;69106;-78
2023/09/28 08:23:06;;;;;;;11.10;8.30;;;;;;;22.09;55.45;100854.12;106407;1254;71701;-77
2023/09/28 08:25:34;;;;;;;8.80;7.90;;;;;;;22.27;55.17;100849.17;106275;1256;60437;-79
2023/09/28 08:28:01;;;;;;;13.00;9.40;;;;;;;22.46;54.82;100850.00;106072;1254;60929;-78
2023/09/28 08:30:29;;;;;;;12.50;8.90;;;;;;;22.62;54.29;100846.72;106056;1256;73550;-78
2023/09/28 08:32:56;;;;;;;10.10;9.10;;;;;;;22.74;54.04;100850.57;106039;1251;70263;-78
2023/09/28 08:35:23;;;;;;;10.20;8.50;;;;;;;22.89;53.91;100850.97;105935;1256;71864;-78
2023/09/28 08:37:50;;;;;;;11.80;9.30;;;;;;;23.05;53.50;100847.45;106084;1251;60408;-79
2023/09/28 08:40:17;;;;;;;12.70;9.50;;;;;;;23.17;53.24;100847.77;106006;1254;60575;-79
2023/09/28 08:42:47;;;;;;;17.20;9.10;;;;;;;23.32;52.85;100843.03;106124;1257;72894;-77
2023/09/28 08:45:15;;;;;;;9.60;8.50;;;;;;;23.48;52.71;100840.09;105932;1259;68846;-78
2023/09/28 08:47:48;;;;;;;9.50;8.60;;;;;;;23.70;52.34;100839.45;106068;1253;72671;-77
2023/09/28 08:50:17;;;;;;;11.60;9.40;;;;;;;23.98;51.74;100830.46;106070;1254;60552;-78
2023/09/28 08:52:44;;;;;;;13.10;8.50;;;;;;;24.27;51.39;100830.25;106079;1257;60407;-76
2023/09/28 08:55:12;;;;;;;11.00;8.20;;;;;;;24.61;50.82;100827.52;105897;1254;73524;-75
2023/09/28 08:57:39;;;;;;;11.50;8.40;;;;;;;25.03;50.02;100824.98;105872;1251;70394;-77
2023/09/28 09:00:13;;;;;;;8.80;7.90;;;;;;;25.59;49.11;100824.77;105860;1256;72436;-77
2023/09/28 09:02:43;;;;;;;10.20;8.00;;;;;;;26.25;48.25;100816.88;105983;1255;60498;-77
2023/09/28 09:05:13;;;;;;;9.00;7.90;;;;;;;26.92;46.79;100820.29;105935;1256;60409;-78
2023/09/28 09:07:43;;;;;;;8.90;8.10;;;;;;;27.49;45.62;100813.10;105954;1256;73837;-76
2023/09/28 09:10:12;;;;;;;11.00;8.40;;;;;;;27.98;44.62;100814.30;105952;1254;71498;-77
2023/09/28 09:12:39;;;;;;;13.80;8.00;;;;;;;28.46;43.86;100813.88;106238;1256;72655;-77
2023/09/28 09:15:06;;;;;;;9.30;8.00;;;;;;;28.97;43.20;100814.96;106049;1254;60444;-77
2023/09/28 09:17:34;;;;;;;9.10;7.90;;;;;;;29.56;42.32;100813.38;106471;1256;60513;-79
2023/09/28 09:20:02;;;;;;;10.10;8.70;;;;;;;30.12;41.39;100810.52;106609;1256;73608;-80
2023/09/28 09:22:30;;;;;;;11.60;7.80;;;;;;;30.60;40.39;100802.89;106607;1257;70174;-78
2023/09/28 09:25:12;;;;;;;13.40;7.70;;;;;;;31.02;39.62;100801.23;107738;1251;73506;-79
2023/09/28 09:27:38;;;;;;;9.50;7.70;;;;;;;31.44;38.96;100803.13;107658;1251;60512;-77
2023/09/28 09:30:09;;;;;;;9.00;7.70;;;;;;;31.91;38.31;100796.39;106434;1256;60822;-78
2023/09/28 09:32:38;;;;;;;8.70;7.90;;;;;;;32.35;37.42;100791.54;106039;1254;72684;-76
2023/09/28 09:35:06;;;;;;;9.80;8.90;;;;;;;32.62;37.25;100790.27;105851;1254;70179;-79
2023/09/28 09:37:34;;;;;;;9.70;8.00;;;;;;;32.88;36.70;100789.16;105802;1254;74524;-79
2023/09/28 09:40:11;;;;;;;14.30;7.40;;;;;;;33.31;36.19;100785.64;105797;1254;60843;-78
2023/09/28 09:42:38;;;;;;;12.00;7.60;;;;;;;33.76;35.39;100785.42;105953;1256;60540;-79
2023/09/28 09:45:05;;;;;;;10.70;7.80;;;;;;;34.13;34.86;100780.95;105964;1254;73425;-79
2023/09/28 09:47:32;;;;;;;11.40;7.40;;;;;;;34.42;34.88;100772.86;106024;1259;70164;-78
2023/09/28 09:50:00;;;;;;;8.90;8.00;;;;;;;34.77;34.30;100771.16;106236;1254;65113;-81
2023/09/28 09:52:28;;;;;;;9.80;7.80;;;;;;;35.03;33.79;100769.54;106484;1254;60382;-80
2023/09/28 09:54:55;;;;;;;8.30;7.50;;;;;;;35.28;33.65;100768.98;106347;1255;60402;-80
2023/09/28 09:57:22;;;;;;;12.00;8.30;;;;;;;35.54;33.06;100769.30;105887;1259;65056;-80
2023/09/28 09:59:48;;;;;;;9.30;7.80;;;;;;;35.83;32.84;100763.34;106159;1256;70026;-78
2023/09/28 10:02:36;;;;;;;10.90;8.50;;;;;;;36.06;32.59;100763.11;106203;1254;62856;-81
2023/09/28 10:05:03;;;;;;;10.00;7.50;;;;;;;36.43;32.22;100764.70;106075;1254;60461;-80
2023/09/28 10:07:33;;;;;;;7.70;7.00;;;;;;;36.78;31.72;100760.67;106023;1257;60544;-81
2023/09/28 10:10:13;;;;;;;;;;;;;;;37.08;31.29;100759.77;106370;1254;66282;-80
2023/09/28 10:12:40;;;;;;;11.80;8.10;;;;;;;37.36;30.97;100761.55;106293;1256;61460;-80
2023/09/28 10:15:08;;;;;;;12.60;7.60;;;;;;;37.76;30.53;100756.59;106170;1259;64094;-79
2023/09/28 10:20:39;;;;;;;7.80;7.00;;;;;;;38.23;29.74;100757.10;106910;1256;60454;-78
2023/09/28 10:23:13;;;;;;;9.00;6.70;;;;;;;38.56;29.58;100750.44;108316;1251;64208;-78
2023/09/28 10:26:06;;;;;;;7.40;6.70;;;;;;;38.86;29.31;100747.63;108702;1254;60334;-79
2023/09/28 10:28:36;;;;;;;9.20;7.40;;;;;;;39.08;29.00;100748.16;108337;1251;64138;-78
2023/09/28 10:31:07;;;;;;;9.20;7.20;;;;;;;39.39;28.58;100748.15;107006;1254;60529;-79
2023/09/28 10:33:34;;;;;;;;;;;;;;;39.81;28.12;100745.39;107372;1256;59148;-77
2023/09/28 10:36:11;;;;;;;7.70;6.80;;;;;;;40.10;27.86;100739.48;108446;1252;64920;-78
2023/09/28 10:38:40;;;;;;;7.60;6.90;;;;;;;40.27;27.52;100735.89;108073;1257;61800;-79
2023/09/28 10:41:07;;;;;;;8.50;7.70;;;;;;;40.33;27.47;100730.62;106406;1256;62596;-80
2023/09/28 10:43:42;;;;;;;10.40;6.50;;;;;;;40.41;27.31;100733.98;106212;1252;60498;-80
2023/09/28 10:46:09;;;;;;;8.30;6.20;;;;;;;40.32;26.96;100728.04;106204;1256;60364;-80
2023/09/28 10:48:40;;;;;;;8.30;7.00;;;;;;;39.91;27.36;100728.80;106081;1254;64058;-79
2023/09/28 10:51:15;;;;;;;8.60;7.00;;;;;;;39.74;27.77;100725.42;106143;1256;61501;-81
2023/09/28 10:53:43;;;;;;;11.50;6.60;;;;;;;39.99;27.47;100724.02;105888;1260;62861;-81
2023/09/28 10:56:12;;;;;;;13.10;7.20;;;;;;;40.28;27.26;100719.38;105996;1257;60559;-80
2023/09/28 10:58:45;;;;;;;7.40;6.50;;;;;;;40.40;27.07;100718.08;105892;1260;60625;-80
2023/09/28 11:01:12;;;;;;;9.40;6.40;;;;;;;40.58;27.00;100714.98;106045;1257;65012;-78
2023/09/28 11:03:39;;;;;;;8.20;6.30;;;;;;;40.75;26.76;100714.12;105895;1254;61807;-79
2023/09/28 11:06:07;;;;;;;8.30;6.20;;;;;;;40.90;26.62;100709.23;106076;1254;64048;-79
2023/09/28 11:08:36;;;;;;;8.70;6.20;;;;;;;40.95;26.68;100706.36;106019;1256;60529;-77
2023/09/28 11:11:03;;;;;;;6.70;6.10;;;;;;;41.10;26.59;100704.52;106079;1256;60444;-77
2023/09/28 11:13:31;;;;;;;8.50;6.80;;;;;;;41.23;26.33;100703.89;106171;1256;66282;-78
2023/09/28 11:15:57;;;;;;;8.80;6.50;;;;;;;41.40;26.08;100703.66;106020;1257;60509;-78
2023/09/28 11:18:25;;;;;;;6.70;6.00;;;;;;;41.64;25.89;100698.13;106013;1257;235506;-76